sensor_id;sensor_type;location;lat;lon;timestamp;pressure;altitude;pressure_sealevel;temperature;humidity
76156;BME280;64906;51.290;7.348;2023-05-21T00:00:17;98816.38;;;19.79;43.73
76156;BME280;64906;51.290;7.348;2023-05-21T00:02:44;98807.94;;;19.76;43.61
76156;BME280;64906;51.290;7.348;2023-05-21T00:05:10;98805.47;;;19.74;43.71
76156;BME280;64906;51.290;7.348;2023-05-21T00:07:36;98813.69;;;19.74;43.48
76156;BME280;64906;51.290;7.348;2023-05-21T00:10:01;98801.66;;;19.75;43.69
76156;BME280;64906;51.290;7.348;2023-05-21T00:12:26;98810.13;;;19.74;43.59
76156;BME280;64906;51.290;7.348;2023-05-21T00:14:52;98804.72;;;19.69;43.75
76156;BME280;64906;51.290;7.348;2023-05-21T00:17:17;98797.84;;;19.71;43.51
76156;BME280;64906;51.290;7.348;2023-05-21T00:19:42;98798.13;;;19.70;43.32
76156;BME280;64906;51.290;7.348;2023-05-21T00:22:08;98801.69;;;19.70;43.73
76156;BME280;64906;51.290;7.348;2023-05-21T00:24:33;98784.44;;;19.70;43.48
76156;BME280;64906;51.290;7.348;2023-05-21T00:26:59;98788.28;;;19.69;43.57
76156;BME280;64906;51.290;7.348;2023-05-21T00:29:25;98783.31;;;19.71;43.60
76156;BME280;64906;51.290;7.348;2023-05-21T00:31:51;98782.81;;;19.69;43.65
76156;BME280;64906;51.290;7.348;2023-05-21T00:34:17;98788.00;;;19.70;43.59
76156;BME280;64906;51.290;7.348;2023-05-21T00:36:44;98781.16;;;19.68;43.42
76156;BME280;64906;51.290;7.348;2023-05-21T00:39:09;98772.66;;;19.69;43.52
76156;BME280;64906;51.290;7.348;2023-05-21T00:41:35;98782.53;;;19.70;43.63
76156;BME280;64906;51.290;7.348;2023-05-21T00:44:02;98777.56;;;19.72;43.74
76156;BME280;64906;51.290;7.348;2023-05-21T00:46:27;98772.38;;;19.71;43.40
76156;BME280;64906;51.290;7.348;2023-05-21T00:48:53;98777.34;;;19.69;43.52
76156;BME280;64906;51.290;7.348;2023-05-21T00:51:19;98779.53;;;19.67;43.84
76156;BME280;64906;51.290;7.348;2023-05-21T00:53:49;98770.78;;;19.65;43.64
76156;BME280;64906;51.290;7.348;2023-05-21T00:56:15;98771.63;;;19.65;43.78
76156;BME280;64906;51.290;7.348;2023-05-21T00:58:41;98771.63;;;19.65;43.54
76156;BME280;64906;51.290;7.348;2023-05-21T01:01:07;98766.94;;;19.66;43.62
76156;BME280;64906;51.290;7.348;2023-05-21T01:03:37;98755.69;;;19.67;43.87
76156;BME280;64906;51.290;7.348;2023-05-21T01:06:04;98759.28;;;19.63;43.57
76156;BME280;64906;51.290;7.348;2023-05-21T01:08:30;98759.00;;;19.64;43.59
76156;BME280;64906;51.290;7.348;2023-05-21T01:10:56;98744.81;;;19.62;43.75
76156;BME280;64906;51.290;7.348;2023-05-21T01:13:23;98747.00;;;19.60;43.77
76156;BME280;64906;51.290;7.348;2023-05-21T01:15:51;98755.75;;;19.62;43.92
76156;BME280;64906;51.290;7.348;2023-05-21T01:18:18;98755.22;;;19.60;43.87
76156;BME280;64906;51.290;7.348;2023-05-21T01:20:45;98755.81;;;19.57;43.72
76156;BME280;64906;51.290;7.348;2023-05-21T01:23:15;98750.28;;;19.62;44.01
76156;BME280;64906;51.290;7.348;2023-05-21T01:25:41;98754.41;;;19.60;43.69
76156;BME280;64906;51.290;7.348;2023-05-21T01:28:06;98759.88;;;19.60;43.73
76156;BME280;64906;51.290;7.348;2023-05-21T01:30:32;98754.69;;;19.58;43.88
76156;BME280;64906;51.290;7.348;2023-05-21T01:33:01;98746.72;;;19.62;43.77
76156;BME280;64906;51.290;7.348;2023-05-21T01:38:30;98742.63;;;19.59;43.57
76156;BME280;64906;51.290;7.348;2023-05-21T01:41:06;98742.09;;;19.57;43.55
76156;BME280;64906;51.290;7.348;2023-05-21T01:43:33;98738.84;;;19.55;43.80
76156;BME280;64906;51.290;7.348;2023-05-21T01:46:01;98737.19;;;19.54;44.01
76156;BME280;64906;51.290;7.348;2023-05-21T01:48:27;98739.13;;;19.54;43.58
76156;BME280;64906;51.290;7.348;2023-05-21T01:50:54;98742.66;;;19.54;43.90
76156;BME280;64906;51.290;7.348;2023-05-21T01:53:21;98739.41;;;19.52;43.90
76156;BME280;64906;51.290;7.348;2023-05-21T01:55:46;98739.91;;;19.54;43.67
76156;BME280;64906;51.290;7.348;2023-05-21T01:58:12;98733.66;;;19.54;43.68
76156;BME280;64906;51.290;7.348;2023-05-21T02:00:39;98734.97;;;19.56;43.63
76156;BME280;64906;51.290;7.348;2023-05-21T02:03:04;98740.75;;;19.55;43.58
76156;BME280;64906;51.290;7.348;2023-05-21T02:05:30;98739.41;;;19.52;43.79
76156;BME280;64906;51.290;7.348;2023-05-21T02:07:55;98737.75;;;19.51;43.91
76156;BME280;64906;51.290;7.348;2023-05-21T02:10:21;98737.25;;;19.49;43.95
76156;BME280;64906;51.290;7.348;2023-05-21T02:12:46;98744.59;;;19.54;43.88
76156;BME280;64906;51.290;7.348;2023-05-21T02:15:11;98731.50;;;19.51;43.91
76156;BME280;64906;51.290;7.348;2023-05-21T02:17:38;98733.41;;;19.50;43.83
76156;BME280;64906;51.290;7.348;2023-05-21T02:20:05;98736.97;;;19.51;43.90
76156;BME280;64906;51.290;7.348;2023-05-21T02:22:37;98730.13;;;19.48;43.85
76156;BME280;64906;51.290;7.348;2023-05-21T02:25:03;98733.41;;;19.50;43.62
76156;BME280;64906;51.290;7.348;2023-05-21T02:27:29;98732.88;;;19.48;43.82
76156;BME280;64906;51.290;7.348;2023-05-21T02:29:56;98730.13;;;19.48;43.84
76156;BME280;64906;51.290;7.348;2023-05-21T02:32:21;98726.00;;;19.51;43.89
76156;BME280;64906;51.290;7.348;2023-05-21T02:34:48;98729.59;;;19.46;43.87
76156;BME280;64906;51.290;7.348;2023-05-21T02:37:14;98723.56;;;19.49;43.99
76156;BME280;64906;51.290;7.348;2023-05-21T02:39:39;98733.44;;;19.45;43.93
76156;BME280;64906;51.290;7.348;2023-05-21T02:42:05;98733.16;;;19.47;43.90
76156;BME280;64906;51.290;7.348;2023-05-21T02:44:30;98736.19;;;19.45;43.80
76156;BME280;64906;51.290;7.348;2023-05-21T02:46:55;98726.34;;;19.44;43.73
76156;BME280;64906;51.290;7.348;2023-05-21T02:49:21;98725.53;;;19.44;43.85
76156;BME280;64906;51.290;7.348;2023-05-21T02:51:46;98724.97;;;19.42;44.02
76156;BME280;64906;51.290;7.348;2023-05-21T02:54:11;98731.28;;;19.42;43.77
76156;BME280;64906;51.290;7.348;2023-05-21T02:56:36;98719.78;;;19.40;43.80
76156;BME280;64906;51.290;7.348;2023-05-21T02:59:02;98726.34;;;19.44;43.77
76156;BME280;64906;51.290;7.348;2023-05-21T03:01:27;98729.13;;;19.39;43.94
76156;BME280;64906;51.290;7.348;2023-05-21T03:03:52;98724.16;;;19.41;43.90
76156;BME280;64906;51.290;7.348;2023-05-21T03:06:18;98723.06;;;19.42;44.04
76156;BME280;64906;51.290;7.348;2023-05-21T03:08:43;98717.59;;;19.42;43.83
76156;BME280;64906;51.290;7.348;2023-05-21T03:11:08;98717.06;;;19.40;43.83
76156;BME280;64906;51.290;7.348;2023-05-21T03:13:34;98717.34;;;19.39;43.92
76156;BME280;64906;51.290;7.348;2023-05-21T03:15:59;98702.03;;;19.38;43.98
76156;BME280;64906;51.290;7.348;2023-05-21T03:18:24;98714.63;;;19.39;44.05
76156;BME280;64906;51.290;7.348;2023-05-21T03:20:50;98712.69;;;19.39;43.94
76156;BME280;64906;51.290;7.348;2023-05-21T03:23:15;98708.03;;;19.40;44.06
76156;BME280;64906;51.290;7.348;2023-05-21T03:25:40;98704.19;;;19.41;43.95
76156;BME280;64906;51.290;7.348;2023-05-21T03:28:06;98701.50;;;19.36;43.79
76156;BME280;64906;51.290;7.348;2023-05-21T03:30:34;98703.94;;;19.37;44.08
76156;BME280;64906;51.290;7.348;2023-05-21T03:33:00;98701.50;;;19.36;43.77
76156;BME280;64906;51.290;7.348;2023-05-21T03:35:27;98700.09;;;19.38;43.82
76156;BME280;64906;51.290;7.348;2023-05-21T03:37:52;98712.75;;;19.34;44.07
76156;BME280;64906;51.290;7.348;2023-05-21T03:40:18;98706.97;;;19.36;43.92
76156;BME280;64906;51.290;7.348;2023-05-21T03:42:43;98711.06;;;19.38;44.07
76156;BME280;64906;51.290;7.348;2023-05-21T03:45:08;98706.41;;;19.39;43.82
76156;BME280;64906;51.290;7.348;2023-05-21T03:47:34;98710.50;;;19.36;43.87
76156;BME280;64906;51.290;7.348;2023-05-21T03:50:00;98713.25;;;19.36;43.81
76156;BME280;64906;51.290;7.348;2023-05-21T03:52:26;98707.78;;;19.36;43.90
76156;BME280;64906;51.290;7.348;2023-05-21T03:54:51;98704.53;;;19.34;43.96
76156;BME280;64906;51.290;7.348;2023-05-21T03:57:16;98705.56;;;19.38;43.91
76156;BME280;64906;51.290;7.348;2023-05-21T03:59:42;98701.78;;;19.34;43.96
76156;BME280;64906;51.290;7.348;2023-05-21T04:02:07;98691.09;;;19.38;43.80
76156;BME280;64906;51.290;7.348;2023-05-21T04:04:32;98697.38;;;19.38;43.80
76156;BME280;64906;51.290;7.348;2023-05-21T04:06:57;98694.38;;;19.35;43.80
76156;BME280;64906;51.290;7.348;2023-05-21T04:09:23;98703.13;;;19.37;43.59
76156;BME280;64906;51.290;7.348;2023-05-21T04:11:49;98703.94;;;19.37;43.81
76156;BME280;64906;51.290;7.348;2023-05-21T04:14:14;98711.63;;;19.35;43.90
76156;BME280;64906;51.290;7.348;2023-05-21T04:16:40;98699.00;;;19.39;43.93
76156;BME280;64906;51.290;7.348;2023-05-21T04:19:08;98715.44;;;19.39;43.89
76156;BME280;64906;51.290;7.348;2023-05-21T04:21:33;98712.75;;;19.34;43.75
76156;BME280;64906;51.290;7.348;2023-05-21T04:23:58;98710.25;;;19.38;43.76
76156;BME280;64906;51.290;7.348;2023-05-21T04:26:24;98710.81;;;19.35;43.75
76156;BME280;64906;51.290;7.348;2023-05-21T04:28:50;98707.78;;;19.36;43.73
76156;BME280;64906;51.290;7.348;2023-05-21T04:31:15;98715.94;;;19.41;43.83
76156;BME280;64906;51.290;7.348;2023-05-21T04:33:41;98718.69;;;19.41;43.93
76156;BME280;64906;51.290;7.348;2023-05-21T04:36:10;98714.06;;;19.37;43.94
76156;BME280;64906;51.290;7.348;2023-05-21T04:38:36;98714.06;;;19.37;44.00
76156;BME280;64906;51.290;7.348;2023-05-21T04:41:01;98713.00;;;19.38;43.98
76156;BME280;64906;51.290;7.348;2023-05-21T04:43:30;98718.19;;;19.39;43.81
76156;BME280;64906;51.290;7.348;2023-05-21T04:45:56;98712.16;;;19.37;43.97
76156;BME280;64906;51.290;7.348;2023-05-21T04:48:21;98718.97;;;19.40;43.75
76156;BME280;64906;51.290;7.348;2023-05-21T04:50:49;98716.78;;;19.42;43.69
76156;BME280;64906;51.290;7.348;2023-05-21T04:53:15;98712.13;;;19.42;43.63
76156;BME280;64906;51.290;7.348;2023-05-21T04:55:40;98712.13;;;19.42;43.70
76156;BME280;64906;51.290;7.348;2023-05-21T04:58:06;98710.47;;;19.41;43.66
76156;BME280;64906;51.290;7.348;2023-05-21T05:00:32;98709.69;;;19.41;43.71
76156;BME280;64906;51.290;7.348;2023-05-21T05:02:58;98717.59;;;19.42;43.77
76156;BME280;64906;51.290;7.348;2023-05-21T05:05:24;98708.81;;;19.45;43.50
76156;BME280;64906;51.290;7.348;2023-05-21T05:07:49;98707.72;;;19.41;43.75
76156;BME280;64906;51.290;7.348;2023-05-21T05:10:15;98706.94;;;19.41;43.66
76156;BME280;64906;51.290;7.348;2023-05-21T05:12:40;98714.03;;;19.42;43.72
76156;BME280;64906;51.290;7.348;2023-05-21T05:15:06;98711.84;;;19.44;43.50
76156;BME280;64906;51.290;7.348;2023-05-21T05:17:31;98712.13;;;19.42;43.49
76156;BME280;64906;51.290;7.348;2023-05-21T05:19:58;98712.13;;;19.42;43.68
76156;BME280;64906;51.290;7.348;2023-05-21T05:22:23;98699.75;;;19.45;43.95
76156;BME280;64906;51.290;7.348;2023-05-21T05:24:49;98697.56;;;19.47;43.75
76156;BME280;64906;51.290;7.348;2023-05-21T05:27:14;98693.50;;;19.44;43.99
76156;BME280;64906;51.290;7.348;2023-05-21T05:29:39;98697.31;;;19.43;43.72
76156;BME280;64906;51.290;7.348;2023-05-21T05:32:05;98699.19;;;19.48;43.59
76156;BME280;64906;51.290;7.348;2023-05-21T05:34:30;98707.69;;;19.46;43.53
76156;BME280;64906;51.290;7.348;2023-05-21T05:36:56;98700.59;;;19.45;43.63
76156;BME280;64906;51.290;7.348;2023-05-21T05:39:22;98700.59;;;19.45;43.73
76156;BME280;64906;51.290;7.348;2023-05-21T05:41:47;98700.31;;;19.47;43.94
76156;BME280;64906;51.290;7.348;2023-05-21T05:44:12;98695.66;;;19.47;43.58
76156;BME280;64906;51.290;7.348;2023-05-21T05:46:38;98695.66;;;19.47;43.43
76156;BME280;64906;51.290;7.348;2023-05-21T05:49:03;98697.56;;;19.47;43.76
76156;BME280;64906;51.290;7.348;2023-05-21T05:51:28;98702.22;;;19.46;43.48
76156;BME280;64906;51.290;7.348;2023-05-21T05:53:54;98692.09;;;19.47;43.50
76156;BME280;64906;51.290;7.348;2023-05-21T05:56:19;98687.16;;;19.49;43.52
76156;BME280;64906;51.290;7.348;2023-05-21T05:58:45;98692.34;;;19.50;43.34
76156;BME280;64906;51.290;7.348;2023-05-21T06:01:11;98690.41;;;19.51;43.69
76156;BME280;64906;51.290;7.348;2023-05-21T06:03:37;98695.91;;;19.51;43.55
76156;BME280;64906;51.290;7.348;2023-05-21T06:06:02;98693.16;;;19.51;43.41
76156;BME280;64906;51.290;7.348;2023-05-21T06:08:28;98697.81;;;19.50;43.36
76156;BME280;64906;51.290;7.348;2023-05-21T06:10:53;98696.41;;;19.53;43.41
76156;BME280;64906;51.290;7.348;2023-05-21T06:13:18;98705.16;;;19.55;43.34
76156;BME280;64906;51.290;7.348;2023-05-21T06:15:44;98697.22;;;19.53;43.59
76156;BME280;64906;51.290;7.348;2023-05-21T06:18:09;98704.84;;;19.56;43.57
76156;BME280;64906;51.290;7.348;2023-05-21T06:20:35;98698.81;;;19.59;43.33
76156;BME280;64906;51.290;7.348;2023-05-21T06:23:01;98699.63;;;19.60;43.49
76156;BME280;64906;51.290;7.348;2023-05-21T06:25:26;98701.78;;;19.63;43.14
76156;BME280;64906;51.290;7.348;2023-05-21T06:27:52;98706.69;;;19.66;43.36
76156;BME280;64906;51.290;7.348;2023-05-21T06:30:17;98698.16;;;19.67;43.30
76156;BME280;64906;51.290;7.348;2023-05-21T06:32:42;98691.59;;;19.68;43.28
76156;BME280;64906;51.290;7.348;2023-05-21T06:35:08;98695.44;;;19.67;43.06
76156;BME280;64906;51.290;7.348;2023-05-21T06:37:34;98701.44;;;19.69;43.47
76156;BME280;64906;51.290;7.348;2023-05-21T06:39:59;98696.25;;;19.68;43.23
76156;BME280;64906;51.290;7.348;2023-05-21T06:42:24;98694.09;;;19.65;43.23
76156;BME280;64906;51.290;7.348;2023-05-21T06:44:50;98688.88;;;19.68;43.23
76156;BME280;64906;51.290;7.348;2023-05-21T06:47:15;98681.19;;;19.70;43.29
76156;BME280;64906;51.290;7.348;2023-05-21T06:49:40;98683.94;;;19.70;43.18
76156;BME280;64906;51.290;7.348;2023-05-21T06:52:06;98684.78;;;19.66;43.32
76156;BME280;64906;51.290;7.348;2023-05-21T06:54:31;98679.28;;;19.66;43.69
76156;BME280;64906;51.290;7.348;2023-05-21T06:56:57;98683.38;;;19.68;43.50
76156;BME280;64906;51.290;7.348;2023-05-21T06:59:22;98679.00;;;19.67;43.38
76156;BME280;64906;51.290;7.348;2023-05-21T07:01:47;98677.31;;;19.71;43.22
76156;BME280;64906;51.290;7.348;2023-05-21T07:04:13;98674.53;;;19.76;43.02
76156;BME280;64906;51.290;7.348;2023-05-21T07:06:38;98670.69;;;19.77;42.98
76156;BME280;64906;51.290;7.348;2023-05-21T07:09:04;98676.09;;;19.82;42.90
76156;BME280;64906;51.290;7.348;2023-05-21T07:11:30;98680.78;;;19.82;43.11
76156;BME280;64906;51.290;7.348;2023-05-21T07:13:57;98680.25;;;19.80;43.10
76156;BME280;64906;51.290;7.348;2023-05-21T07:16:22;98678.31;;;19.80;42.91
76156;BME280;64906;51.290;7.348;2023-05-21T07:18:48;98678.00;;;19.87;43.07
76156;BME280;64906;51.290;7.348;2023-05-21T07:21:13;98673.59;;;19.86;43.16
76156;BME280;64906;51.290;7.348;2023-05-21T07:23:38;98674.66;;;19.90;43.00
76156;BME280;64906;51.290;7.348;2023-05-21T07:26:04;98677.91;;;19.92;43.07
76156;BME280;64906;51.290;7.348;2023-05-21T07:28:30;98672.44;;;19.92;42.82
76156;BME280;64906;51.290;7.348;2023-05-21T07:30:55;98678.16;;;19.95;42.83
76156;BME280;64906;51.290;7.348;2023-05-21T07:33:21;98673.50;;;19.96;42.78
76156;BME280;64906;51.290;7.348;2023-05-21T07:35:47;98666.59;;;19.98;42.76
76156;BME280;64906;51.290;7.348;2023-05-21T07:38:12;98668.25;;;19.99;42.58
76156;BME280;64906;51.290;7.348;2023-05-21T07:40:38;98667.72;;;19.97;42.70
76156;BME280;64906;51.290;7.348;2023-05-21T07:43:03;98669.56;;;20.02;42.71
76156;BME280;64906;51.290;7.348;2023-05-21T07:45:28;98669.81;;;20.05;42.80
76156;BME280;64906;51.290;7.348;2023-05-21T07:47:54;98679.69;;;20.07;42.56
76156;BME280;64906;51.290;7.348;2023-05-21T07:50:19;98673.09;;;20.08;42.51
76156;BME280;64906;51.290;7.348;2023-05-21T07:52:45;98671.97;;;20.08;42.44
76156;BME280;64906;51.290;7.348;2023-05-21T07:55:10;98686.78;;;20.08;42.69
76156;BME280;64906;51.290;7.348;2023-05-21T07:57:35;98680.72;;;20.11;42.57
76156;BME280;64906;51.290;7.348;2023-05-21T08:00:02;98697.16;;;20.11;43.00
76156;BME280;64906;51.290;7.348;2023-05-21T08:02:27;98700.13;;;20.14;42.48
76156;BME280;64906;51.290;7.348;2023-05-21T08:04:52;98696.56;;;20.14;42.75
76156;BME280;64906;51.290;7.348;2023-05-21T08:07:19;98701.00;;;20.15;42.72
76156;BME280;64906;51.290;7.348;2023-05-21T08:09:46;98710.84;;;20.16;42.71
76156;BME280;64906;51.290;7.348;2023-05-21T08:12:11;98710.84;;;20.16;42.88
76156;BME280;64906;51.290;7.348;2023-05-21T08:14:40;98704.53;;;20.15;42.97
76156;BME280;64906;51.290;7.348;2023-05-21T08:17:08;98709.22;;;20.15;42.64
76156;BME280;64906;51.290;7.348;2023-05-21T08:19:33;98705.34;;;20.16;42.95
76156;BME280;64906;51.290;7.348;2023-05-21T08:21:59;98706.47;;;20.15;42.73
76156;BME280;64906;51.290;7.348;2023-05-21T08:24:24;98710.84;;;20.16;42.72
76156;BME280;64906;51.290;7.348;2023-05-21T08:26:50;98713.81;;;20.19;42.59
76156;BME280;64906;51.290;7.348;2023-05-21T08:29:15;98714.09;;;20.18;42.90
76156;BME280;64906;51.290;7.348;2023-05-21T08:31:41;98720.13;;;20.20;43.13
76156;BME280;64906;51.290;7.348;2023-05-21T08:34:06;98717.66;;;20.18;42.85
76156;BME280;64906;51.290;7.348;2023-05-21T08:36:32;98715.44;;;20.20;42.81
76156;BME280;64906;51.290;7.348;2023-05-21T08:38:57;98716.56;;;20.19;42.79
76156;BME280;64906;51.290;7.348;2023-05-21T08:41:22;98719.28;;;20.19;43.02
76156;BME280;64906;51.290;7.348;2023-05-21T08:43:54;98723.38;;;20.22;42.77
76156;BME280;64906;51.290;7.348;2023-05-21T08:46:24;98719.81;;;20.21;43.18
76156;BME280;64906;51.290;7.348;2023-05-21T08:48:50;98717.09;;;20.21;43.12
76156;BME280;64906;51.290;7.348;2023-05-21T08:51:19;98718.41;;;20.24;43.05
76156;BME280;64906;51.290;7.348;2023-05-21T08:53:45;98714.84;;;20.23;43.10
76156;BME280;64906;51.290;7.348;2023-05-21T08:56:11;98716.19;;;20.26;42.69
76156;BME280;64906;51.290;7.348;2023-05-21T08:58:39;98710.66;;;20.31;43.08
76156;BME280;64906;51.290;7.348;2023-05-21T09:01:06;98710.13;;;20.29;43.21
76156;BME280;64906;51.290;7.348;2023-05-21T09:03:32;98707.69;;;20.27;43.13
76156;BME280;64906;51.290;7.348;2023-05-21T09:05:59;98709.84;;;20.30;43.10
76156;BME280;64906;51.290;7.348;2023-05-21T09:08:28;98704.06;;;20.32;43.14
76156;BME280;64906;51.290;7.348;2023-05-21T09:10:55;98699.41;;;20.32;43.36
76156;BME280;64906;51.290;7.348;2023-05-21T09:13:20;98702.91;;;20.38;43.03
76156;BME280;64906;51.290;7.348;2023-05-21T09:15:46;98697.97;;;20.35;43.41
76156;BME280;64906;51.290;7.348;2023-05-21T09:18:13;98694.44;;;20.34;43.34
76156;BME280;64906;51.290;7.348;2023-05-21T09:20:39;98680.72;;;20.34;43.58
76156;BME280;64906;51.290;7.348;2023-05-21T09:23:06;98681.03;;;20.33;43.44
76156;BME280;64906;51.290;7.348;2023-05-21T09:25:37;98685.63;;;20.37;43.49
76156;BME280;64906;51.290;7.348;2023-05-21T09:28:03;98685.03;;;20.40;43.32
76156;BME280;64906;51.290;7.348;2023-05-21T09:30:28;98687.78;;;20.40;43.52
76156;BME280;64906;51.290;7.348;2023-05-21T09:32:57;98692.44;;;20.40;43.41
76156;BME280;64906;51.290;7.348;2023-05-21T09:35:24;98683.63;;;20.43;43.37
76156;BME280;64906;51.290;7.348;2023-05-21T09:37:50;98687.19;;;20.43;43.35
76156;BME280;64906;51.290;7.348;2023-05-21T09:40:17;98686.09;;;20.44;43.52
76156;BME280;64906;51.290;7.348;2023-05-21T09:42:47;98686.81;;;20.50;43.45
76156;BME280;64906;51.290;7.348;2023-05-21T09:45:32;98688.97;;;20.53;43.27
76156;BME280;64906;51.290;7.348;2023-05-21T09:47:58;98681.25;;;20.55;43.11
76156;BME280;64906;51.290;7.348;2023-05-21T09:50:25;98682.91;;;20.56;43.30
76156;BME280;64906;51.290;7.348;2023-05-21T09:52:52;98685.34;;;20.57;43.05
76156;BME280;64906;51.290;7.348;2023-05-21T09:55:21;98676.00;;;20.58;43.08
76156;BME280;64906;51.290;7.348;2023-05-21T09:57:48;98673.78;;;20.60;43.15
76156;BME280;64906;51.290;7.348;2023-05-21T10:00:27;98676.53;;;20.60;43.19
76156;BME280;64906;51.290;7.348;2023-05-21T10:02:54;98682.56;;;20.62;43.21
76156;BME280;64906;51.290;7.348;2023-05-21T10:05:19;98675.13;;;20.63;43.57
76156;BME280;64906;51.290;7.348;2023-05-21T10:07:51;98671.66;;;20.57;43.86
76156;BME280;64906;51.290;7.348;2023-05-21T10:10:21;98672.00;;;20.51;45.91
76156;BME280;64906;51.290;7.348;2023-05-21T10:12:53;98665.84;;;20.40;47.29
76156;BME280;64906;51.290;7.348;2023-05-21T10:15:22;98665.66;;;20.32;48.04
76156;BME280;64906;51.290;7.348;2023-05-21T10:17:48;98659.47;;;20.45;46.51
76156;BME280;64906;51.290;7.348;2023-05-21T10:20:15;98657.72;;;20.54;45.87
76156;BME280;64906;51.290;7.348;2023-05-21T10:22:43;98662.81;;;20.60;46.02
76156;BME280;64906;51.290;7.348;2023-05-21T10:25:09;98656.97;;;20.67;45.17
76156;BME280;64906;51.290;7.348;2023-05-21T10:27:35;98660.72;;;20.71;45.08
76156;BME280;64906;51.290;7.348;2023-05-21T10:30:03;98651.41;;;20.72;44.84
76156;BME280;64906;51.290;7.348;2023-05-21T10:32:30;98657.69;;;20.72;44.84
76156;BME280;64906;51.290;7.348;2023-05-21T10:34:56;98656.28;;;20.75;44.43
76156;BME280;64906;51.290;7.348;2023-05-21T10:37:22;98656.28;;;20.75;44.90
76156;BME280;64906;51.290;7.348;2023-05-21T10:39:48;98657.63;;;20.77;44.63
76156;BME280;64906;51.290;7.348;2023-05-21T10:42:39;98651.34;;;20.77;44.45
76156;BME280;64906;51.290;7.348;2023-05-21T10:50:57;98647.38;;;20.83;44.39
76156;BME280;64906;51.290;7.348;2023-05-21T10:53:54;98643.22;;;20.85;43.97
76156;BME280;64906;51.290;7.348;2023-05-21T10:56:40;98638.56;;;20.86;43.91
76156;BME280;64906;51.290;7.348;2023-05-21T10:59:14;98644.56;;;20.88;44.04
76156;BME280;64906;51.290;7.348;2023-05-21T11:01:47;98638.78;;;20.89;43.95
76156;BME280;64906;51.290;7.348;2023-05-21T11:04:13;98640.69;;;20.89;43.85
76156;BME280;64906;51.290;7.348;2023-05-21T11:06:45;98637.66;;;20.90;44.20
76156;BME280;64906;51.290;7.348;2023-05-21T11:09:13;98637.34;;;20.92;43.79
76156;BME280;64906;51.290;7.348;2023-05-21T11:11:57;98633.81;;;20.91;43.72
76156;BME280;64906;51.290;7.348;2023-05-21T11:15:02;98636.78;;;20.95;43.70
76156;BME280;64906;51.290;7.348;2023-05-21T11:17:40;98623.59;;;20.97;43.78
76156;BME280;64906;51.290;7.348;2023-05-21T11:20:09;98629.06;;;20.97;43.41
76156;BME280;64906;51.290;7.348;2023-05-21T11:22:35;98630.72;;;20.98;43.67
76156;BME280;64906;51.290;7.348;2023-05-21T11:25:02;98628.78;;;20.98;43.59
76156;BME280;64906;51.290;7.348;2023-05-21T11:27:35;98624.94;;;20.99;43.70
76156;BME280;64906;51.290;7.348;2023-05-21T11:30:15;98623.50;;;21.02;43.86
76156;BME280;64906;51.290;7.348;2023-05-21T11:35:56;98624.84;;;21.04;43.78
76156;BME280;64906;51.290;7.348;2023-05-21T11:38:22;98625.63;;;21.05;43.31
76156;BME280;64906;51.290;7.348;2023-05-21T11:40:51;98622.91;;;21.05;43.62
76156;BME280;64906;51.290;7.348;2023-05-21T11:43:18;98624.53;;;21.06;43.48
76156;BME280;64906;51.290;7.348;2023-05-21T11:45:44;98635.00;;;21.04;43.26
76156;BME280;64906;51.290;7.348;2023-05-21T11:48:12;98632.25;;;21.04;43.64
76156;BME280;64906;51.290;7.348;2023-05-21T11:50:38;98633.09;;;21.04;43.25
76156;BME280;64906;51.290;7.348;2023-05-21T11:53:06;98633.59;;;21.06;43.36
76156;BME280;64906;51.290;7.348;2023-05-21T11:55:37;98629.72;;;21.07;43.55
76156;BME280;64906;51.290;7.348;2023-05-21T11:58:03;98625.06;;;21.08;43.61
76156;BME280;64906;51.290;7.348;2023-05-21T12:00:29;98631.34;;;21.08;43.60
76156;BME280;64906;51.290;7.348;2023-05-21T12:02:55;98627.22;;;21.11;43.35
76156;BME280;64906;51.290;7.348;2023-05-21T12:05:20;98623.03;;;21.13;43.22
76156;BME280;64906;51.290;7.348;2023-05-21T12:07:47;98625.47;;;21.15;43.45
76156;BME280;64906;51.290;7.348;2023-05-21T12:10:14;98626.00;;;21.17;43.44
76156;BME280;64906;51.290;7.348;2023-05-21T12:12:39;98616.94;;;21.16;43.13
76156;BME280;64906;51.290;7.348;2023-05-21T12:15:05;98621.03;;;21.19;43.05
76156;BME280;64906;51.290;7.348;2023-05-21T12:17:31;98613.63;;;21.19;43.46
76156;BME280;64906;51.290;7.348;2023-05-21T12:19:57;98622.03;;;21.23;43.24
76156;BME280;64906;51.290;7.348;2023-05-21T12:22:23;98617.59;;;21.27;43.21
76156;BME280;64906;51.290;7.348;2023-05-21T12:24:49;98622.25;;;21.26;43.06
76156;BME280;64906;51.290;7.348;2023-05-21T12:27:15;98615.16;;;21.25;43.10
76156;BME280;64906;51.290;7.348;2023-05-21T12:29:43;98620.34;;;21.27;43.29
76156;BME280;64906;51.290;7.348;2023-05-21T12:32:14;98615.97;;;21.26;42.99
76156;BME280;64906;51.290;7.348;2023-05-21T12:34:50;98611.78;;;21.28;42.81
76156;BME280;64906;51.290;7.348;2023-05-21T12:37:27;98616.16;;;21.29;43.14
76156;BME280;64906;51.290;7.348;2023-05-21T12:40:01;98618.63;;;21.31;42.84
76156;BME280;64906;51.290;7.348;2023-05-21T12:42:31;98616.38;;;21.33;43.14
76156;BME280;64906;51.290;7.348;2023-05-21T12:44:59;98626.25;;;21.34;42.87
76156;BME280;64906;51.290;7.348;2023-05-21T12:47:26;98618.00;;;21.34;43.13
76156;BME280;64906;51.290;7.348;2023-05-21T12:49:59;98617.19;;;21.33;43.09
76156;BME280;64906;51.290;7.348;2023-05-21T12:52:26;98619.63;;;21.35;42.69
76156;BME280;64906;51.290;7.348;2023-05-21T12:54:53;98612.00;;;21.32;43.29
76156;BME280;64906;51.290;7.348;2023-05-21T12:57:20;98607.72;;;21.40;42.81
76156;BME280;64906;51.290;7.348;2023-05-21T12:59:58;98609.88;;;21.43;42.96
76156;BME280;64906;51.290;7.348;2023-05-21T13:02:28;98603.59;;;21.42;43.15
76156;BME280;64906;51.290;7.348;2023-05-21T13:04:56;98607.44;;;21.41;42.87
76156;BME280;64906;51.290;7.348;2023-05-21T13:07:22;98611.31;;;21.40;43.04
76156;BME280;64906;51.290;7.348;2023-05-21T13:09:48;98600.31;;;21.40;43.03